Time;durP1;ratioP1;P1;durP2;ratioP2;P2;SDS_P1;SDS_P2;PMS_P1;PMS_P2;Temp;Humidity;BMP_temperature;BMP_pressure;BME280_temperature;BME280_humidity;BME280_pressure;Samples;Min_cycle;Max_cycle;Signal;HPM_P1;HPM_P2
2022/01/21 00:00:19;;;;;;;6.03;2.33;;;5.10;75.20;;;;;;945247;151;28700;-74
2022/01/21 00:02:46;;;;;;;2.37;1.83;;;5.00;75.40;;;;;;943256;151;27393;-75
2022/01/21 00:05:13;;;;;;;3.40;2.47;;;4.90;75.70;;;;;;944576;151;27261;-74
2022/01/21 00:07:39;;;;;;;3.83;2.10;;;4.90;76.00;;;;;;945648;151;27235;-74
2022/01/21 00:10:06;;;;;;;4.47;2.10;;;4.80;76.20;;;;;;944695;151;27343;-74
2022/01/21 00:12:34;;;;;;;4.53;2.63;;;4.80;76.30;;;;;;944577;151;27440;-74
2022/01/21 00:14:59;;;;;;;5.20;3.20;;;4.80;76.40;;;;;;945283;149;27440;-74
2022/01/21 00:17:26;;;;;;;3.83;2.33;;;4.70;76.50;;;;;;945761;151;27253;-74
2022/01/21 00:30:04;;;;;;;3.53;2.37;;;4.70;76.70;;;;;;941409;148;27457;-74
2022/01/21 00:30:33;;;;;;;3.97;2.13;;;4.60;77.30;;;;;;940291;152;27414;-74
2022/01/21 00:33:00;;;;;;;3.03;2.33;;;4.50;77.40;;;;;;940467;152;27792;-74
2022/01/21 00:35:27;;;;;;;3.50;2.20;;;4.50;77.30;;;;;;940362;150;27409;-74
2022/01/21 00:37:53;;;;;;;2.97;2.20;;;4.50;77.30;;;;;;940422;152;27390;-74
2022/01/21 00:40:22;;;;;;;5.30;2.70;;;4.40;77.40;;;;;;939397;151;27379;-74
2022/01/21 00:45:20;;;;;;;6.43;2.60;;;4.30;77.50;;;;;;940013;152;27354;-74
2022/01/21 00:47:48;;;;;;;2.17;1.97;;;4.30;77.70;;;;;;940721;151;27242;-74
2022/01/21 00:50:14;;;;;;;4.30;2.53;;;4.20;77.90;;;;;;940047;151;27463;-74
2022/01/21 00:52:40;;;;;;;4.90;2.53;;;4.20;78.10;;;;;;940402;152;28556;-74
2022/01/21 00:55:07;;;;;;;2.87;2.23;;;4.20;79.20;;;;;;938507;152;27254;-74
2022/01/21 00:57:39;;;;;;;4.47;2.60;;;4.20;78.70;;;;;;940149;151;27776;-74
2022/01/21 01:00:06;;;;;;;4.40;2.10;;;4.20;78.70;;;;;;938937;151;27356;-74
2022/01/21 01:02:32;;;;;;;4.40;2.67;;;4.20;78.70;;;;;;939812;152;27347;-74
2022/01/21 01:05:02;;;;;;;4.07;2.37;;;4.20;78.70;;;;;;940541;152;27237;-74
2022/01/21 01:07:28;;;;;;;3.83;2.37;;;4.20;78.50;;;;;;939723;151;27317;-74
2022/01/21 01:09:57;;;;;;;2.50;2.20;;;4.10;78.40;;;;;;939715;150;27746;-74
2022/01/21 01:12:48;;;;;;;5.03;2.33;;;4.10;78.40;;;;;;939127;152;27416;-73
2022/01/21 01:20:17;;;;;;;3.90;2.40;;;3.90;78.30;;;;;;939857;149;27398;-74
2022/01/21 01:23:07;;;;;;;6.30;2.30;;;3.90;78.40;;;;;;940036;150;27342;-73
2022/01/21 01:28:13;;;;;;;3.13;2.40;;;3.70;78.50;;;;;;940021;152;27430;-75
2022/01/21 01:30:40;;;;;;;2.37;2.07;;;3.70;78.60;;;;;;940098;150;28519;-75
2022/01/21 01:33:09;;;;;;;4.00;2.07;;;3.60;79.40;;;;;;939664;152;27329;-75
2022/01/21 01:35:33;;;;;;;4.23;2.50;;;3.60;78.90;;;;;;940016;152;27423;-73
2022/01/21 01:40:35;;;;;;;7.13;2.90;;;3.50;79.00;;;;;;940278;151;27340;-74
2022/01/21 01:51:00;;;;;;;5.27;2.20;;;3.30;79.30;;;;;;928480;152;27370;-74
2022/01/21 01:53:30;;;;;;;9.57;3.47;;;3.30;79.50;;;;;;925003;152;27372;-74
2022/01/21 01:55:56;;;;;;;6.20;2.83;;;3.30;79.60;;;;;;925329;152;27499;-74
2022/01/21 01:58:23;;;;;;;6.77;2.70;;;3.20;79.90;;;;;;928170;150;27422;-74
2022/01/21 02:00:49;;;;;;;4.87;2.50;;;3.20;80.10;;;;;;924891;152;27445;-74
2022/01/21 02:03:16;;;;;;;3.27;2.17;;;3.30;80.50;;;;;;929174;150;27347;-74
2022/01/21 02:05:42;;;;;;;7.00;2.37;;;3.30;80.70;;;;;;944227;148;27434;-73
2022/01/21 02:08:12;;;;;;;5.20;2.20;;;3.30;81.00;;;;;;928740;150;27369;-74
2022/01/21 02:10:39;;;;;;;6.17;2.63;;;3.40;81.20;;;;;;929230;150;27428;-74
2022/01/21 02:13:18;;;;;;;3.33;2.17;;;3.50;81.40;;;;;;927459;150;27393;-74
2022/01/21 02:15:37;;;;;;;3.93;2.43;;;3.60;81.60;;;;;;938605;149;27471;-74
2022/01/21 02:23:30;;;;;;;3.13;2.20;;;3.80;80.90;;;;;;926738;154;27406;-75
2022/01/21 02:25:57;;;;;;;3.73;2.27;;;3.80;80.60;;;;;;926499;154;27329;-74
2022/01/21 02:28:24;;;;;;;5.60;2.70;;;3.80;80.40;;;;;;927838;153;27321;-74
2022/01/21 02:30:56;;;;;;;4.80;2.33;;;3.90;80.30;;;;;;927207;152;27833;-74
2022/01/21 02:33:22;;;;;;;5.43;2.90;;;3.90;80.30;;;;;;928720;154;27367;-74
2022/01/21 02:35:49;;;;;;;5.33;2.40;;;3.80;80.10;;;;;;929800;154;27346;-75
2022/01/21 02:38:16;;;;;;;4.00;2.13;;;3.80;80.00;;;;;;929499;154;27334;-74
2022/01/21 02:40:42;;;;;;;6.03;2.17;;;3.80;79.90;;;;;;928254;154;27309;-74
2022/01/21 02:43:09;;;;;;;5.03;2.53;;;3.80;79.80;;;;;;928646;154;27377;-74
2022/01/21 02:45:37;;;;;;;5.73;2.50;;;3.70;78.90;;;;;;928096;154;27813;-74
2022/01/21 02:48:02;;;;;;;5.90;2.67;;;3.70;79.70;;;;;;928130;153;27431;-75
2022/01/21 02:50:28;;;;;;;4.73;2.33;;;3.70;79.70;;;;;;927998;154;27341;-74
2022/01/21 02:53:11;;;;;;;2.97;2.30;;;3.60;79.70;;;;;;928023;153;27314;-74
2022/01/21 02:55:24;;;;;;;5.23;2.53;;;3.50;80.50;;;;;;926662;152;27481;-75
2022/01/21 02:57:51;;;;;;;3.47;2.57;;;3.50;79.80;;;;;;943528;151;27449;-74
2022/01/21 03:00:17;;;;;;;4.00;2.20;;;3.50;80.00;;;;;;945016;151;27329;-74
2022/01/21 03:02:44;;;;;;;4.20;2.40;;;3.40;80.00;;;;;;943729;151;27328;-75
2022/01/21 03:05:14;;;;;;;5.03;2.70;;;3.40;80.20;;;;;;941743;151;27337;-74
2022/01/21 03:07:37;;;;;;;5.20;2.57;;;3.30;80.40;;;;;;929576;153;27369;-74
2022/01/21 03:10:04;;;;;;;4.07;2.63;;;3.30;80.70;;;;;;930517;153;27373;-74
2022/01/21 03:12:30;;;;;;;6.17;3.17;;;3.30;81.00;;;;;;930293;154;27322;-75
2022/01/21 03:14:57;;;;;;;4.73;3.07;;;3.30;81.40;;;;;;928352;154;27384;-74
2022/01/21 03:17:23;;;;;;;5.73;2.83;;;3.40;81.70;;;;;;941539;151;27293;-74
2022/01/21 03:19:50;;;;;;;4.10;2.70;;;3.40;81.80;;;;;;945124;149;27298;-74
2022/01/21 03:22:17;;;;;;;3.97;2.70;;;3.50;82.00;;;;;;939298;151;27377;-74
2022/01/21 03:24:43;;;;;;;5.47;2.73;;;3.50;82.10;;;;;;928162;154;27867;-74
2022/01/21 03:27:10;;;;;;;3.63;2.83;;;3.50;82.20;;;;;;939028;151;27445;-74
2022/01/21 03:29:36;;;;;;;5.67;2.77;;;3.60;82.30;;;;;;922790;153;27374;-74
2022/01/21 03:32:03;;;;;;;6.37;3.00;;;3.70;82.30;;;;;;937657;152;27359;-74
2022/01/21 03:34:29;;;;;;;3.63;2.70;;;3.70;82.30;;;;;;941861;152;27373;-74
2022/01/21 03:36:56;;;;;;;6.83;3.20;;;3.80;82.30;;;;;;938644;151;27345;-74
2022/01/21 03:39:23;;;;;;;6.37;3.27;;;3.80;82.20;;;;;;938133;152;27324;-74
2022/01/21 03:41:49;;;;;;;4.17;2.67;;;3.90;82.30;;;;;;941736;152;27308;-75
2022/01/21 03:44:16;;;;;;;6.17;2.93;;;4.00;82.30;;;;;;941754;151;27285;-75
2022/01/21 03:46:42;;;;;;;5.97;2.77;;;4.00;82.20;;;;;;940150;151;27447;-74
2022/01/21 03:49:12;;;;;;;5.70;2.77;;;4.10;82.10;;;;;;925797;154;27361;-74
2022/01/21 03:51:38;;;;;;;4.47;2.97;;;4.10;82.00;;;;;;926630;152;27798;-75
2022/01/21 03:54:05;;;;;;;5.50;3.17;;;4.10;82.00;;;;;;922947;155;27347;-74
2022/01/21 03:56:32;;;;;;;6.43;3.63;;;4.20;81.80;;;;;;938853;152;27334;-74
2022/01/21 03:58:58;;;;;;;4.60;2.90;;;4.20;81.70;;;;;;941526;149;28741;-77
2022/01/21 04:01:25;;;;;;;3.50;2.83;;;4.20;81.60;;;;;;942029;149;27434;-74
2022/01/21 04:03:54;;;;;;;5.73;2.87;;;4.30;81.60;;;;;;939877;151;27367;-79
2022/01/21 04:06:21;;;;;;;3.57;2.57;;;4.30;81.50;;;;;;941419;151;27255;-79
2022/01/21 04:08:47;;;;;;;5.47;2.80;;;4.30;81.80;;;;;;926256;155;27392;-78
2022/01/21 04:11:14;;;;;;;5.00;2.67;;;4.30;81.30;;;;;;942061;152;27325;-78
2022/01/21 04:13:45;;;;;;;5.10;2.70;;;4.30;81.20;;;;;;942166;151;27293;-75
2022/01/21 04:16:10;;;;;;;3.80;3.00;;;4.30;81.10;;;;;;927278;153;27394;-79
2022/01/21 04:18:37;;;;;;;5.30;2.93;;;4.30;81.00;;;;;;928542;151;28293;-73
2022/01/21 04:21:03;;;;;;;4.50;2.60;;;4.30;80.90;;;;;;930365;151;27733;-72
2022/01/21 04:23:30;;;;;;;5.53;2.83;;;4.20;80.90;;;;;;942181;148;27300;-74
2022/01/21 04:25:57;;;;;;;5.90;3.17;;;4.20;80.90;;;;;;937593;150;27263;-73
2022/01/21 04:28:24;;;;;;;7.60;2.80;;;4.20;81.20;;;;;;935146;151;27451;-75
2022/01/21 04:30:50;;;;;;;6.80;2.80;;;4.20;81.40;;;;;;933925;151;27495;-77
2022/01/21 04:33:16;;;;;;;5.70;3.10;;;4.20;81.70;;;;;;934355;151;27337;-78
2022/01/21 04:35:43;;;;;;;3.83;2.57;;;4.20;81.80;;;;;;929740;154;27365;-78
2022/01/21 04:38:12;;;;;;;4.67;2.70;;;4.30;82.00;;;;;;929955;154;27330;-79
2022/01/21 04:40:45;;;;;;;5.77;3.13;;;4.30;82.00;;;;;;942310;151;27297;-74
2022/01/21 04:48:32;;;;;;;4.40;2.80;;;4.50;82.00;;;;;;928721;154;27960;-79
2022/01/21 04:51:12;;;;;;;5.23;2.83;;;4.50;82.00;;;;;;927074;153;27247;-78
2022/01/21 04:53:25;;;;;;;6.10;3.00;;;4.60;82.00;;;;;;927245;153;27367;-77
2022/01/21 04:55:51;;;;;;;3.27;2.80;;;4.60;82.00;;;;;;928409;153;27391;-78
2022/01/21 04:58:18;;;;;;;6.47;3.40;;;4.60;81.90;;;;;;927629;154;27912;-79
2022/01/21 05:00:45;;;;;;;6.47;3.23;;;4.70;82.00;;;;;;926881;154;27267;-79
2022/01/21 05:03:11;;;;;;;8.83;2.90;;;4.70;81.80;;;;;;927864;154;27337;-79
2022/01/21 05:05:40;;;;;;;4.67;3.30;;;4.80;81.90;;;;;;928619;154;27875;-73
2022/01/21 05:08:10;;;;;;;4.50;2.63;;;4.80;81.70;;;;;;928786;154;27366;-79
2022/01/21 05:10:35;;;;;;;9.30;3.73;;;4.80;81.60;;;;;;927346;154;28521;-79
2022/01/21 05:13:00;;;;;;;4.73;3.07;;;4.90;81.60;;;;;;927871;154;27416;-79
2022/01/21 05:15:42;;;;;;;6.53;4.53;;;4.90;81.50;;;;;;929335;151;27443;-78
2022/01/21 05:17:53;;;;;;;7.70;3.50;;;4.90;81.40;;;;;;928978;153;27313;-74
2022/01/21 05:20:20;;;;;;;5.20;3.50;;;4.90;81.30;;;;;;929900;153;27349;-79
2022/01/21 05:22:46;;;;;;;6.33;3.33;;;5.00;81.30;;;;;;933339;149;27518;-79
2022/01/21 05:25:17;;;;;;;6.90;3.10;;;5.00;81.30;;;;;;942027;149;27364;-79
2022/01/21 05:27:40;;;;;;;5.10;3.00;;;5.00;81.10;;;;;;942412;149;27403;-78
2022/01/21 05:30:07;;;;;;;5.90;3.23;;;5.00;81.40;;;;;;942595;149;27334;-78
2022/01/21 05:32:33;;;;;;;6.40;3.40;;;5.00;81.00;;;;;;941800;149;27349;-79
2022/01/21 05:35:00;;;;;;;4.33;2.60;;;5.00;80.90;;;;;;942354;149;27333;-73
2022/01/21 05:37:26;;;;;;;6.87;3.87;;;5.10;81.60;;;;;;942733;149;27372;-79
2022/01/21 05:39:53;;;;;;;4.60;2.97;;;5.00;80.80;;;;;;941505;149;27322;-79
2022/01/21 05:42:20;;;;;;;3.67;3.00;;;5.00;80.80;;;;;;942951;149;27765;-79
2022/01/21 05:47:13;;;;;;;3.70;3.00;;;5.10;80.80;;;;;;942397;149;27290;-77
2022/01/21 05:49:40;;;;;;;6.80;3.80;;;5.10;80.80;;;;;;941792;149;27381;-78
2022/01/21 05:52:16;;;;;;;5.00;3.53;;;5.10;80.70;;;;;;942056;149;27365;-78
2022/01/21 05:54:35;;;;;;;5.10;3.00;;;5.10;80.70;;;;;;940088;149;27443;-79
2022/01/21 05:57:04;;;;;;;6.30;3.23;;;5.10;80.70;;;;;;942112;149;27298;-79
2022/01/21 05:59:28;;;;;;;4.30;3.07;;;5.10;80.60;;;;;;941678;149;27348;-77
2022/01/21 06:01:55;;;;;;;5.73;3.50;;;5.10;80.50;;;;;;943072;149;27869;-79
2022/01/21 06:04:22;;;;;;;5.40;3.30;;;5.10;80.40;;;;;;942246;149;27455;-79
2022/01/21 06:06:48;;;;;;;9.23;3.70;;;5.10;80.30;;;;;;939751;149;27325;-79
2022/01/21 06:09:15;;;;;;;5.23;3.33;;;5.10;80.20;;;;;;940650;149;27279;-77
2022/01/21 06:11:41;;;;;;;6.03;3.43;;;5.10;80.00;;;;;;942671;149;27409;-78
2022/01/21 06:14:08;;;;;;;8.67;3.67;;;5.10;79.90;;;;;;942694;149;27413;-75
2022/01/21 06:16:35;;;;;;;6.23;3.50;;;5.00;79.90;;;;;;943197;149;27357;-79
2022/01/21 06:19:01;;;;;;;5.53;3.87;;;5.00;79.90;;;;;;942067;149;29312;-78
2022/01/21 06:21:28;;;;;;;5.43;3.07;;;5.00;79.90;;;;;;941381;149;27415;-77
2022/01/21 06:23:54;;;;;;;3.80;3.27;;;5.00;80.00;;;;;;942158;149;27454;-77
2022/01/21 06:26:21;;;;;;;9.00;3.73;;;4.90;80.00;;;;;;942929;149;27288;-76
2022/01/21 06:28:47;;;;;;;5.83;3.17;;;4.90;80.20;;;;;;941893;149;27447;-77
2022/01/21 06:31:17;;;;;;;4.50;3.53;;;4.90;80.50;;;;;;941872;149;27879;-76
2022/01/21 06:33:43;;;;;;;6.00;3.77;;;4.90;80.30;;;;;;941934;149;27279;-77
2022/01/21 06:36:10;;;;;;;6.63;3.90;;;4.90;80.30;;;;;;941939;149;28010;-77
2022/01/21 06:38:36;;;;;;;5.90;3.40;;;4.90;80.40;;;;;;941960;149;27439;-75
2022/01/21 06:41:03;;;;;;;3.70;3.23;;;4.90;80.40;;;;;;942701;149;27459;-79
2022/01/21 06:43:30;;;;;;;4.23;3.47;;;4.90;80.50;;;;;;941751;149;27365;-78
2022/01/21 06:45:56;;;;;;;7.67;4.10;;;4.90;80.50;;;;;;942455;149;27313;-77
2022/01/21 06:48:25;;;;;;;5.43;3.97;;;4.90;80.50;;;;;;942310;149;27326;-79
2022/01/21 06:50:49;;;;;;;8.53;4.10;;;4.90;80.50;;;;;;942443;149;27299;-77
2022/01/21 06:53:16;;;;;;;7.07;4.03;;;5.00;80.50;;;;;;942489;149;27445;-73
2022/01/21 06:55:42;;;;;;;9.07;4.50;;;5.00;80.50;;;;;;941737;149;27458;-78
2022/01/21 06:58:09;;;;;;;9.40;4.20;;;5.00;80.60;;;;;;942543;149;27393;-74
2022/01/21 07:00:36;;;;;;;6.43;3.90;;;5.00;80.50;;;;;;943015;149;27353;-79
2022/01/21 07:03:02;;;;;;;6.80;4.57;;;5.00;80.50;;;;;;942637;149;27258;-78
2022/01/21 07:05:29;;;;;;;6.00;3.70;;;5.00;80.40;;;;;;942221;149;27379;-74
2022/01/21 07:07:56;;;;;;;8.43;4.23;;;5.00;80.40;;;;;;942782;149;28036;-78
2022/01/21 07:10:22;;;;;;;5.73;3.47;;;5.00;80.40;;;;;;942030;149;28093;-77
2022/01/21 07:12:49;;;;;;;6.70;3.50;;;5.00;79.60;;;;;;941435;149;27283;-82
2022/01/21 07:15:16;;;;;;;6.20;4.27;;;5.00;80.50;;;;;;942074;149;27381;-78
2022/01/21 07:17:42;;;;;;;6.70;4.07;;;5.00;80.50;;;;;;941983;149;27338;-78
2022/01/21 07:20:11;;;;;;;7.40;4.50;;;5.00;80.50;;;;;;940669;149;27321;-74
2022/01/21 07:22:38;;;;;;;6.63;4.60;;;5.10;80.50;;;;;;940650;149;27393;-81
2022/01/21 07:25:04;;;;;;;5.33;4.20;;;5.10;80.50;;;;;;942267;149;27369;-80
2022/01/21 07:27:31;;;;;;;9.10;3.93;;;5.10;80.50;;;;;;941746;149;27271;-78
2022/01/21 07:29:57;;;;;;;6.60;4.13;;;5.10;80.50;;;;;;941271;149;27402;-79
2022/01/21 07:32:27;;;;;;;4.70;4.23;;;5.10;80.60;;;;;;942680;149;27894;-77
2022/01/21 07:34:53;;;;;;;7.90;4.03;;;5.10;80.50;;;;;;942501;149;27352;-81
2022/01/21 07:37:20;;;;;;;7.97;4.63;;;5.20;80.50;;;;;;941995;149;27361;-80
2022/01/21 07:39:46;;;;;;;5.67;4.67;;;5.20;80.50;;;;;;941501;149;27411;-80
2022/01/21 07:42:13;;;;;;;8.33;4.40;;;5.20;80.50;;;;;;941913;149;27355;-80
2022/01/21 07:44:40;;;;;;;7.80;3.80;;;5.20;80.40;;;;;;942235;149;27294;-75
2022/01/21 07:47:06;;;;;;;6.93;4.00;;;5.20;80.40;;;;;;940947;149;27876;-79
2022/01/21 07:49:33;;;;;;;5.47;3.60;;;5.20;80.40;;;;;;941070;149;27430;-81
2022/01/21 07:51:59;;;;;;;4.63;4.23;;;5.20;80.30;;;;;;941423;149;27873;-81
2022/01/21 07:54:26;;;;;;;5.47;3.83;;;5.30;80.50;;;;;;942142;149;27333;-81
2022/01/21 07:56:53;;;;;;;6.70;4.00;;;5.30;80.50;;;;;;941583;149;27504;-79
2022/01/21 07:59:19;;;;;;;6.67;3.80;;;5.30;80.50;;;;;;941957;149;27380;-79
2022/01/21 08:01:46;;;;;;;8.17;4.30;;;5.30;80.70;;;;;;941679;149;27361;-80
2022/01/21 08:04:12;;;;;;;6.30;4.20;;;5.40;80.50;;;;;;942229;149;27930;-79
2022/01/21 08:06:39;;;;;;;7.47;4.77;;;5.40;79.90;;;;;;942229;149;27325;-79
2022/01/21 08:09:05;;;;;;;12.00;4.43;;;5.40;80.40;;;;;;942559;149;27463;-80
2022/01/21 08:11:32;;;;;;;8.23;4.07;;;5.50;80.40;;;;;;941919;149;27416;-77
2022/01/21 08:13:59;;;;;;;7.10;4.30;;;5.50;80.40;;;;;;940811;149;27348;-81
2022/01/21 08:16:25;;;;;;;10.83;5.07;;;5.50;80.40;;;;;;940532;149;27409;-80
2022/01/21 08:18:54;;;;;;;4.93;3.97;;;5.60;80.50;;;;;;940681;149;27329;-80
2022/01/21 08:21:18;;;;;;;7.70;4.30;;;5.60;80.40;;;;;;941180;149;27451;-80
2022/01/21 08:23:45;;;;;;;11.00;4.77;;;5.70;80.40;;;;;;941108;149;27411;-76
2022/01/21 08:26:12;;;;;;;6.60;4.30;;;5.70;80.40;;;;;;929979;149;27397;-74
2022/01/21 08:28:38;;;;;;;8.57;4.73;;;5.70;80.40;;;;;;930228;151;27367;-80
2022/01/21 08:31:05;;;;;;;8.80;4.50;;;5.80;80.50;;;;;;928112;154;27351;-81
2022/01/21 08:33:31;;;;;;;11.30;5.10;;;5.90;80.60;;;;;;940734;151;27831;-79
2022/01/21 08:35:58;;;;;;;6.00;4.27;;;5.90;80.70;;;;;;943476;150;27265;-80
2022/01/21 08:38:25;;;;;;;10.27;4.77;;;6.00;80.80;;;;;;945294;151;27406;-78
2022/01/21 08:40:51;;;;;;;5.67;4.43;;;6.10;80.80;;;;;;944832;151;27390;-81
2022/01/21 08:43:18;;;;;;;5.33;4.23;;;6.20;80.90;;;;;;929661;154;27466;-79
2022/01/21 08:45:44;;;;;;;8.37;5.13;;;6.30;80.70;;;;;;929740;154;27829;-78
2022/01/21 08:48:11;;;;;;;7.77;4.73;;;6.40;80.60;;;;;;928706;154;27331;-81
2022/01/21 08:50:37;;;;;;;8.67;5.30;;;6.40;80.40;;;;;;941354;151;27427;-75
2022/01/21 08:53:36;;;;;;;7.13;4.43;;;6.50;80.30;;;;;;945194;151;28010;-74
2022/01/21 08:55:36;;;;;;;7.80;5.17;;;6.60;80.20;;;;;;928255;154;27459;-80
2022/01/21 08:58:03;;;;;;;7.07;5.17;;;6.60;80.00;;;;;;929286;153;27328;-80
2022/01/21 09:00:29;;;;;;;6.23;4.63;;;6.70;79.90;;;;;;929830;154;27393;-79
2022/01/21 09:02:56;;;;;;;8.00;4.97;;;6.80;79.70;;;;;;928123;154;27370;-78
2022/01/21 09:05:23;;;;;;;10.53;5.60;;;6.80;79.40;;;;;;927044;154;28274;-78
2022/01/21 09:07:49;;;;;;;6.23;5.03;;;6.90;79.80;;;;;;929472;152;27471;-82
2022/01/21 09:10:16;;;;;;;8.87;5.93;;;6.90;79.10;;;;;;945166;149;28239;-81
2022/01/21 09:12:42;;;;;;;11.60;5.23;;;6.90;79.10;;;;;;929152;152;27455;-82
2022/01/21 09:15:09;;;;;;;9.70;5.27;;;7.00;79.20;;;;;;927498;152;27379;-76
2022/01/21 09:17:37;;;;;;;8.90;5.77;;;7.00;79.20;;;;;;928956;152;27427;-78
2022/01/21 09:20:02;;;;;;;9.50;5.77;;;7.10;79.20;;;;;;930111;153;27447;-74
2022/01/21 09:22:29;;;;;;;9.10;5.37;;;7.10;79.30;;;;;;928594;154;28335;-77
2022/01/21 09:24:55;;;;;;;7.47;5.80;;;7.20;79.30;;;;;;927922;151;27442;-80
2022/01/21 09:27:22;;;;;;;8.43;5.83;;;7.30;79.50;;;;;;925237;154;27325;-81
2022/01/21 09:29:49;;;;;;;9.40;5.23;;;7.40;79.50;;;;;;940266;151;27369;-82
2022/01/21 09:32:17;;;;;;;12.10;5.50;;;7.50;79.20;;;;;;928157;154;27326;-78
2022/01/21 09:34:42;;;;;;;9.67;5.13;;;7.50;78.90;;;;;;930191;153;27424;-81
2022/01/21 09:37:08;;;;;;;10.33;5.30;;;7.60;78.70;;;;;;928540;154;27367;-82
2022/01/21 09:39:35;;;;;;;11.73;5.67;;;7.60;78.40;;;;;;927884;154;27366;-80
2022/01/21 09:42:01;;;;;;;10.77;5.40;;;7.70;78.30;;;;;;928435;154;27412;-77
2022/01/21 09:44:28;;;;;;;7.87;5.30;;;7.70;78.20;;;;;;929629;154;27298;-77
2022/01/21 09:46:57;;;;;;;10.07;4.90;;;7.80;78.00;;;;;;939639;151;27345;-74
2022/01/21 09:49:27;;;;;;;8.77;6.17;;;7.80;78.00;;;;;;928085;154;27460;-79
2022/01/21 09:51:56;;;;;;;7.27;5.57;;;7.90;78.50;;;;;;929204;154;27846;-81
2022/01/21 09:54:23;;;;;;;8.33;5.23;;;7.90;77.70;;;;;;929906;152;27429;-80
2022/01/21 09:56:49;;;;;;;9.17;5.47;;;7.90;77.40;;;;;;928127;154;27453;-73
2022/01/21 09:59:18;;;;;;;7.27;5.10;;;7.90;77.20;;;;;;929724;152;27368;-82
2022/01/21 10:01:45;;;;;;;8.47;5.60;;;7.90;77.10;;;;;;928697;154;27414;-75
2022/01/21 10:04:12;;;;;;;6.77;4.97;;;8.00;77.10;;;;;;929547;153;27307;-78
2022/01/21 10:06:38;;;;;;;8.00;5.53;;;8.00;76.80;;;;;;929859;151;27429;-77
2022/01/21 10:09:05;;;;;;;9.67;5.27;;;8.00;76.80;;;;;;945263;151;27532;-73
2022/01/21 10:11:31;;;;;;;10.73;5.53;;;8.00;76.90;;;;;;939118;151;27353;-82
2022/01/21 10:13:58;;;;;;;9.40;5.90;;;8.00;76.90;;;;;;945158;151;27342;-82
2022/01/21 10:16:25;;;;;;;8.97;5.77;;;8.00;76.90;;;;;;942278;149;27826;-80
2022/01/21 10:19:03;;;;;;;9.73;5.83;;;8.00;76.90;;;;;;945260;149;27321;-81
2022/01/21 10:21:30;;;;;;;10.53;5.20;;;8.00;77.00;;;;;;928955;153;27364;-74
2022/01/21 10:23:56;;;;;;;6.83;4.97;;;8.10;77.10;;;;;;929374;154;27365;-81
2022/01/21 10:26:23;;;;;;;9.83;5.57;;;8.20;77.40;;;;;;933835;150;27422;-80
2022/01/21 10:28:50;;;;;;;6.90;5.37;;;8.20;77.40;;;;;;941433;149;27431;-77
2022/01/21 10:31:16;;;;;;;6.10;4.43;;;8.30;77.20;;;;;;941149;149;27330;-81
2022/01/21 10:33:48;;;;;;;8.73;5.60;;;8.40;77.20;;;;;;942912;149;27333;-76
2022/01/21 10:36:28;;;;;;;5.87;4.87;;;8.40;77.00;;;;;;943656;146;27738;-78
2022/01/21 10:38:55;;;;;;;7.13;5.10;;;8.50;77.70;;;;;;944209;149;27372;-77
2022/01/21 10:41:21;;;;;;;7.30;4.93;;;8.60;76.90;;;;;;943915;149;27387;-79
2022/01/21 10:43:46;;;;;;;8.50;5.13;;;8.60;76.80;;;;;;942240;149;27440;-80
2022/01/21 10:46:16;;;;;;;8.10;5.13;;;8.70;76.70;;;;;;941359;149;27392;-76
2022/01/21 10:49:00;;;;;;;6.93;5.47;;;8.80;76.70;;;;;;940956;149;27860;-82
2022/01/21 10:51:27;;;;;;;6.83;5.23;;;8.80;76.40;;;;;;942021;149;27698;-79
2022/01/21 10:53:53;;;;;;;10.00;5.70;;;8.90;76.30;;;;;;941241;149;27267;-80
2022/01/21 10:56:20;;;;;;;8.60;5.13;;;8.90;76.10;;;;;;941874;149;27810;-78
2022/01/21 10:58:47;;;;;;;8.80;5.23;;;9.00;75.90;;;;;;942269;149;27675;-76
2022/01/21 11:01:17;;;;;;;7.90;5.03;;;9.00;75.90;;;;;;941041;149;27365;-81
2022/01/21 11:03:40;;;;;;;6.17;5.10;;;9.00;75.70;;;;;;941387;149;27259;-78
2022/01/21 11:06:14;;;;;;;6.53;4.30;;;9.10;75.70;;;;;;938542;149;27398;-81
2022/01/21 11:08:39;;;;;;;8.03;4.63;;;9.10;75.60;;;;;;942297;149;27361;-79
2022/01/21 11:11:05;;;;;;;6.50;4.63;;;9.20;75.70;;;;;;941423;149;27408;-73
2022/01/21 11:13:32;;;;;;;10.03;5.20;;;9.20;75.70;;;;;;941981;149;27365;-81
2022/01/21 11:16:13;;;;;;;7.00;4.83;;;9.30;75.90;;;;;;941283;149;27399;-76
2022/01/21 11:18:52;;;;;;;7.23;4.30;;;9.40;75.60;;;;;;942115;149;27321;-81
2022/01/21 11:21:18;;;;;;;7.67;3.87;;;9.40;75.40;;;;;;941496;149;27329;-78
2022/01/21 11:23:45;;;;;;;8.70;4.27;;;9.50;75.10;;;;;;941789;149;27353;-78
2022/01/21 11:26:16;;;;;;;6.03;4.80;;;9.60;75.10;;;;;;940970;149;27888;-81
2022/01/21 11:28:48;;;;;;;6.93;4.43;;;9.60;74.90;;;;;;927482;154;27278;-81
2022/01/21 11:31:19;;;;;;;5.67;4.07;;;9.60;74.70;;;;;;927309;151;27354;-78
2022/01/21 11:33:45;;;;;;;7.67;4.73;;;9.70;74.80;;;;;;927593;154;27363;-80
2022/01/21 11:36:12;;;;;;;6.97;4.43;;;9.70;74.60;;;;;;927633;154;28037;-76
2022/01/21 11:38:43;;;;;;;7.50;4.03;;;9.70;74.30;;;;;;927526;154;27341;-80
2022/01/21 11:41:08;;;;;;;6.40;3.77;;;9.80;74.00;;;;;;927511;154;27356;-79
2022/01/21 11:43:34;;;;;;;4.43;3.90;;;9.80;73.80;;;;;;928813;151;27342;-78
2022/01/21 11:51:32;;;;;;;4.70;3.47;;;9.70;72.60;;;;;;868809;162;27543;-80
2022/01/21 11:54:01;;;;;;;3.97;3.57;;;9.60;72.80;;;;;;870492;162;27471;-80
2022/01/21 11:56:34;;;;;;;4.27;3.27;;;9.50;72.60;;;;;;868743;162;27719;-79
2022/01/21 11:59:12;;;;;;;4.13;3.40;;;9.40;72.50;;;;;;867740;162;27445;-80
2022/01/21 12:01:46;;;;;;;4.07;3.37;;;9.40;72.50;;;;;;868762;162;27426;-79
2022/01/21 12:04:05;;;;;;;5.37;4.00;;;9.30;72.60;;;;;;860096;163;27484;-79
2022/01/21 12:06:34;;;;;;;6.90;5.30;;;9.20;72.60;;;;;;880815;162;27438;-79
2022/01/21 12:09:02;;;;;;;6.67;5.97;;;9.20;72.60;;;;;;883182;159;28032;-80
2022/01/21 12:11:31;;;;;;;9.23;5.30;;;9.10;71.80;;;;;;883961;159;27425;-80
2022/01/21 12:13:57;;;;;;;4.83;4.43;;;9.00;72.60;;;;;;868778;162;27529;-79
2022/01/21 12:16:52;;;;;;;6.93;5.00;;;8.90;72.50;;;;;;882982;159;27516;-79
2022/01/21 12:19:20;;;;;;;5.40;4.60;;;8.90;72.60;;;;;;881108;159;27439;-79
2022/01/21 12:21:38;;;;;;;7.13;4.60;;;8.80;72.80;;;;;;882238;159;27434;-79
2022/01/21 12:24:04;;;;;;;6.13;4.67;;;8.80;72.90;;;;;;882236;159;27430;-79
2022/01/21 12:26:31;;;;;;;5.37;3.90;;;8.80;73.20;;;;;;882596;159;27521;-78
2022/01/21 12:28:58;;;;;;;6.50;4.20;;;8.80;73.50;;;;;;882441;159;27371;-79
2022/01/21 12:31:45;;;;;;;6.20;4.03;;;8.80;73.70;;;;;;882446;159;27523;-79
2022/01/21 12:34:12;;;;;;;4.87;3.50;;;8.80;73.80;;;;;;881388;159;27561;-79
2022/01/21 12:36:35;;;;;;;3.90;3.30;;;8.90;73.90;;;;;;882418;159;27858;-79
2022/01/21 12:41:37;;;;;;;5.23;3.77;;;9.00;73.80;;;;;;881771;159;27416;-78
2022/01/21 12:44:06;;;;;;;4.30;3.67;;;9.10;73.90;;;;;;882085;159;28480;-79
2022/01/21 12:46:34;;;;;;;4.37;3.50;;;9.10;73.70;;;;;;882410;159;27361;-79
2022/01/21 12:49:00;;;;;;;6.27;3.23;;;9.20;73.60;;;;;;881627;159;27495;-78
2022/01/21 12:56:46;;;;;;;4.73;3.30;;;9.30;72.90;;;;;;877747;160;28226;-79
2022/01/21 12:59:15;;;;;;;4.63;3.70;;;9.30;72.90;;;;;;877204;160;27521;-79
2022/01/21 13:01:42;;;;;;;4.90;3.43;;;9.40;73.00;;;;;;877322;160;27491;-79
2022/01/21 13:04:36;;;;;;;5.10;3.40;;;9.40;73.00;;;;;;877758;160;27438;-79
2022/01/21 13:07:12;;;;;;;5.23;3.40;;;9.50;72.90;;;;;;859157;160;27462;-78
2022/01/21 13:09:38;;;;;;;3.30;3.00;;;9.50;72.90;;;;;;876255;160;27563;-79
2022/01/21 13:12:11;;;;;;;6.23;4.17;;;9.60;72.60;;;;;;876807;160;27429;-79
2022/01/21 13:17:05;;;;;;;5.53;3.60;;;9.60;72.20;;;;;;877792;160;27512;-79
2022/01/21 13:19:30;;;;;;;4.47;3.23;;;9.60;71.90;;;;;;877549;160;27438;-79
2022/01/21 13:21:57;;;;;;;5.07;3.77;;;9.60;71.70;;;;;;878143;160;27450;-79
2022/01/21 13:26:53;;;;;;;4.50;3.40;;;9.60;71.80;;;;;;877682;160;27458;-79
2022/01/21 13:29:19;;;;;;;4.17;3.27;;;9.50;71.70;;;;;;877333;160;27430;-79
2022/01/21 13:31:49;;;;;;;3.47;3.10;;;9.50;71.50;;;;;;877573;160;27438;-79
2022/01/21 13:34:15;;;;;;;5.10;3.53;;;9.50;71.60;;;;;;878103;160;27957;-79
2022/01/21 13:36:42;;;;;;;8.27;3.80;;;9.50;71.80;;;;;;877841;160;27348;-78
2022/01/21 13:39:10;;;;;;;4.30;3.67;;;9.50;71.60;;;;;;877743;160;27515;-78
2022/01/21 13:41:50;;;;;;;4.03;3.20;;;9.50;71.60;;;;;;876580;160;27556;-78
2022/01/21 13:44:26;;;;;;;3.83;3.03;;;9.50;71.70;;;;;;874517;160;27438;-79
2022/01/21 13:46:52;;;;;;;3.10;2.80;;;9.50;71.80;;;;;;877873;160;27459;-79
2022/01/21 13:49:22;;;;;;;5.03;4.33;;;9.50;71.80;;;;;;877717;160;27382;-79
2022/01/21 13:52:03;;;;;;;4.30;3.40;;;9.50;71.60;;;;;;875611;160;27883;-79
2022/01/21 13:54:30;;;;;;;5.63;3.37;;;9.50;71.60;;;;;;870769;161;27511;-79
2022/01/21 13:56:57;;;;;;;5.30;3.70;;;9.50;71.60;;;;;;874650;161;27416;-79